KSBM/SBM METAR and TAF weather

Enter ICAO airport designator
Station Type Date Time Source
KSBM METAR 2020/04/05 22:53 UTC NOAA

KSBM 052253Z AUTO 11005KT 10SM CLR 10/M06 A3016 RMK AO2 SLP217 T01001061


Station Type Date Time Source
KSBM Decoded METAR 2020/04/05 22:53 UTC NOAA

SHEBOYGAN CO MEMORIAL AIRPORT , WI, United States (KSBM) 43-47N 87-51W 232M
Apr 05, 2020 - 06:53 PM EDT / 2020.04.05 2253 UTC
Wind: from the ESE (110 degrees) at 6 MPH (5 KT):0
Visibility: 10 mile(s):0
Sky conditions: clear
Temperature: 50.0 F (10.0 C)
Dew Point: 21.0 F (-6.1 C)
Relative Humidity: 31%
Pressure (altimeter): 30.16 in. Hg (1021 hPa)
ob: KSBM 052253Z AUTO 11005KT 10SM CLR 10/M06 A3016 RMK AO2 SLP217 T01001061
cycle: 23

Station Type Date Time Source
KSBM TAF UTC NOAA

Error!

Example: see airport list